Portada
METAR-TAF:

METAR-TAF

Aeropuertos :

Aeropuerto de Nápoles-Capodichino

Nápoles, Italia

latitud: 40-51N, longitud: 014-18E, altitud: 88 m

Observación

El informe se hizo hace 42 minutos, a las 02:20 UTC
Viento 14 kt del oeste
Temperatura 10°C
Humedad 53%
Presión 1007 hPa
Visibilidad 10 km o más
Escasas nubes a una altura de 5000 ft

METAR: LIRN 270220Z 28014KT 9999 FEW050 10/01 Q1007 TEMPO TSRA

Hora: 04:02 (03:02 UTC)

Pronóstico

El informe se hizo hace 4 horas y 2 minutos, a las 23:00 UTC
Pronóstico válido del 27 a las 00 UTC al 27 a las 24 UTC
Viento 18 kt del oeste-noroeste
Visibilidad 10 km o más
Cielo nuboso a una altura de 2500 ft
Temporalmente
del 27 a las 00 UTC al 27 a las 03 UTC
Viento 18 kt del oeste-noroeste con ráfagas de 28 kt
Visibilidad: 4000 m
tormenta, lluvia

TAF: LIRN 262300Z 2700/2724 29018KT 9999 BKN025 TEMPO 2700/2703 30018G28KT 4000 TSRA

Observaciones y pronósticos meteorológicos de más de 4000 aeropuertos (mensajes METAR y TAF).

Los puntos amarillos y rojos representan las estaciones disponibles.

Ponga el ratón en el punto deseado para ver el nombre de la estación.

Haga clic para ver las observaciones y los pronósticos meteorológicos.

Para cambiar el mapa : haga clic en los botones verdes con una cruz de color negro para hacer un zoom, en el botón verde con un guión para alejar o en las flechas verdes para mapas adyacentes.


METAR-TAF: